PWSweather.com
Personal Weather Stations
Station Observations
MADWEATHER
MadeiraPT

MadeiraPT

Lat: 32.735, Lon: -17.194

Elevation: 1063

Station Type: Davis VantagePro2

Latest ConditionsUpdated 11:50:01 PM GMT Sunday, Nov 18, 2018
Currently Today's Max Today's Min Today's Average
Temperature 57.3°F14.1°C 65.4°F18.6°C 55.5°F13.1°C 59.3°F15.2°C
Dew Point 49.1°F9.5°C 55.4°F13.0°C 48.4°F9.1°C 51.1°F10.6°C
Winds 2.9 mph NNW4.7 kmh NNW 10.6 mph -17.1 kmh - - 4.1 mph 6.6 kmh
Wind Gusts 7.0 mph11.3 kmh 19.0 mph30.6 kmh - -
Humidity 74% 87% 62% 75%
Pressure 29.83 in1010.2 mb 29.85 in1010.8 mb 29.76 in1007.8 mb -
Precipitation - 0.18 in4.6 mm - -
Hour Temp Dew Point Humidity Winds Wind Gusts Pressure Precip Precip Rate Daily Precip Total
11:50 PM 57.3°F14.1°C 49.1°F9.5°C 74% 2.9 mph NNW4.7 kmh NNW 7.0 mph11.3 kmh 29.83 in1010.2 mb - 0.00 in0.0 mm 0.18 in4.6 mm
11:40 PM 57.2°F14.0°C 49.7°F9.8°C 76% 4.3 mph NW6.9 kmh NW 7.0 mph11.3 kmh 29.83 in1010.2 mb - 0.00 in0.0 mm 0.18 in4.6 mm
11:30 PM 57.3°F14.1°C 49.5°F9.7°C 75% 0.8 mph NW1.3 kmh NW -- 29.84 in1010.5 mb - 0.00 in0.0 mm 0.18 in4.6 mm
11:20 PM 57.2°F14.0°C 49.3°F9.6°C 75% 2.6 mph NNW4.2 kmh NNW 6.0 mph9.7 kmh 29.84 in1010.5 mb - 0.00 in0.0 mm 0.18 in4.6 mm
11:10 PM 56.9°F13.8°C 49.4°F9.7°C 76% 2.1 mph N3.4 kmh N 5.0 mph8.0 kmh 29.84 in1010.5 mb - 0.00 in0.0 mm 0.18 in4.6 mm
11:00 PM 56.7°F13.7°C 49.3°F9.6°C 76% 5.6 mph N9.0 kmh N 12.0 mph19.3 kmh 29.84 in1010.5 mb - 0.00 in0.0 mm 0.18 in4.6 mm
10:50 PM 56.7°F13.7°C 48.9°F9.4°C 75% 3.3 mph N5.3 kmh N 8.0 mph12.9 kmh 29.84 in1010.5 mb - 0.00 in0.0 mm 0.18 in4.6 mm
10:40 PM 56.8°F13.8°C 49.0°F9.4°C 75% 1.7 mph N2.7 kmh N 4.0 mph6.4 kmh 29.85 in1010.8 mb - 0.00 in0.0 mm 0.18 in4.6 mm
10:30 PM 56.9°F13.8°C 49.1°F9.5°C 75% 3.8 mph N6.1 kmh N 6.0 mph9.7 kmh 29.85 in1010.8 mb - 0.00 in0.0 mm 0.18 in4.6 mm
10:20 PM 57.2°F14.0°C 49.3°F9.6°C 75% 2.6 mph N4.2 kmh N 5.0 mph8.0 kmh 29.85 in1010.8 mb - 0.00 in0.0 mm 0.18 in4.6 mm
10:10 PM 57.4°F14.1°C 49.9°F9.9°C 76% 3.4 mph N5.5 kmh N 9.0 mph14.5 kmh 29.84 in1010.5 mb - 0.00 in0.0 mm 0.18 in4.6 mm
10:00 PM 57.8°F14.3°C 49.9°F9.9°C 75% 1.9 mph N3.1 kmh N 7.0 mph11.3 kmh 29.85 in1010.8 mb - 0.00 in0.0 mm 0.18 in4.6 mm
09:50 PM 57.7°F14.3°C 49.5°F9.7°C 74% 2.0 mph NNW3.2 kmh NNW 3.0 mph4.8 kmh 29.85 in1010.8 mb - 0.00 in0.0 mm 0.18 in4.6 mm
09:40 PM 57.4°F14.1°C 48.8°F9.3°C 73% 0.4 mph NNW0.6 kmh NNW 2.0 mph3.2 kmh 29.85 in1010.8 mb - 0.00 in0.0 mm 0.18 in4.6 mm
09:30 PM 57.5°F14.2°C 48.5°F9.2°C 72% 1.0 mph NNW1.6 kmh NNW 3.0 mph4.8 kmh 29.84 in1010.5 mb - 0.00 in0.0 mm 0.18 in4.6 mm
09:20 PM 57.7°F14.3°C 48.7°F9.3°C 72% 2.1 mph NNW3.4 kmh NNW 3.0 mph4.8 kmh 29.84 in1010.5 mb - 0.00 in0.0 mm 0.18 in4.6 mm
09:10 PM 57.7°F14.3°C 48.7°F9.3°C 72% 2.8 mph NNW4.5 kmh NNW 6.0 mph9.7 kmh 29.84 in1010.5 mb - 0.00 in0.0 mm 0.18 in4.6 mm
09:00 PM 57.6°F14.2°C 48.6°F9.2°C 72% 3.9 mph NNW6.3 kmh NNW 10.0 mph16.1 kmh 29.84 in1010.5 mb - 0.00 in0.0 mm 0.18 in4.6 mm
08:50 PM 57.5°F14.2°C 48.5°F9.2°C 72% 0.7 mph NNW1.1 kmh NNW 4.0 mph6.4 kmh 29.84 in1010.5 mb - 0.00 in0.0 mm 0.18 in4.6 mm
08:40 PM 57.6°F14.2°C 48.6°F9.2°C 72% 0.4 mph N0.6 kmh N 4.0 mph6.4 kmh 29.84 in1010.5 mb - 0.00 in0.0 mm 0.18 in4.6 mm
08:30 PM 57.7°F14.3°C 48.4°F9.1°C 71% 4.2 mph N6.8 kmh N 7.0 mph11.3 kmh 29.83 in1010.2 mb - 0.00 in0.0 mm 0.18 in4.6 mm
08:20 PM 57.8°F14.3°C 48.4°F9.1°C 71% 1.7 mph N2.7 kmh N 6.0 mph9.7 kmh 29.84 in1010.5 mb - 0.00 in0.0 mm 0.18 in4.6 mm
08:10 PM 57.8°F14.3°C 48.9°F9.4°C 72% 7.3 mph N11.7 kmh N 12.0 mph19.3 kmh 29.84 in1010.5 mb - 0.00 in0.0 mm 0.18 in4.6 mm
08:00 PM 58.2°F14.6°C 50.0°F10.0°C 74% 4.5 mph NW7.2 kmh NW 5.0 mph8.0 kmh 29.84 in1010.5 mb - 0.00 in0.0 mm 0.18 in4.6 mm
07:50 PM 58.1°F14.5°C 49.1°F9.5°C 72% 2.1 mph NNW3.4 kmh NNW 8.0 mph12.9 kmh 29.84 in1010.5 mb - 0.00 in0.0 mm 0.18 in4.6 mm
07:40 PM 57.9°F14.4°C 49.3°F9.6°C 73% 1.1 mph NNW1.8 kmh NNW 6.0 mph9.7 kmh 29.83 in1010.2 mb - 0.00 in0.0 mm 0.18 in4.6 mm
07:30 PM 57.7°F14.3°C 49.1°F9.5°C 73% 1.8 mph NNW2.9 kmh NNW 7.0 mph11.3 kmh 29.83 in1010.2 mb - 0.00 in0.0 mm 0.18 in4.6 mm
07:20 PM 57.7°F14.3°C 49.1°F9.5°C 73% 3.6 mph NNW5.8 kmh NNW 10.0 mph16.1 kmh 29.82 in1009.8 mb - 0.00 in0.0 mm 0.18 in4.6 mm
07:10 PM 57.7°F14.3°C 49.5°F9.7°C 74% 1.2 mph NNW1.9 kmh NNW 2.0 mph3.2 kmh 29.83 in1010.2 mb - 0.00 in0.0 mm 0.18 in4.6 mm
07:00 PM 57.7°F14.3°C 49.5°F9.7°C 74% 2.6 mph NW4.2 kmh NW 5.0 mph8.0 kmh 29.82 in1009.8 mb - 0.00 in0.0 mm 0.18 in4.6 mm
06:50 PM 57.8°F14.3°C 49.2°F9.6°C 73% 2.2 mph NW3.5 kmh NW 3.0 mph4.8 kmh 29.82 in1009.8 mb - 0.00 in0.0 mm 0.18 in4.6 mm
06:40 PM 57.7°F14.3°C 48.8°F9.3°C 72% 3.0 mph NW4.8 kmh NW 11.0 mph17.7 kmh 29.82 in1009.8 mb - 0.00 in0.0 mm 0.18 in4.6 mm
06:30 PM 58.0°F14.4°C 49.4°F9.7°C 73% 2.3 mph NW3.7 kmh NW 10.0 mph16.1 kmh 29.82 in1009.8 mb - 0.00 in0.0 mm 0.18 in4.6 mm
06:20 PM 58.2°F14.6°C 49.6°F9.8°C 73% 3.3 mph NNW5.3 kmh NNW 9.0 mph14.5 kmh 29.82 in1009.8 mb - 0.00 in0.0 mm 0.18 in4.6 mm
06:10 PM 58.5°F14.7°C 49.9°F9.9°C 73% 6.9 mph NNW11.1 kmh NNW 9.0 mph14.5 kmh 29.82 in1009.8 mb - 0.00 in0.0 mm 0.18 in4.6 mm
06:00 PM 58.7°F14.8°C 49.7°F9.8°C 72% 2.1 mph NW3.4 kmh NW 5.0 mph8.0 kmh 29.82 in1009.8 mb - 0.00 in0.0 mm 0.18 in4.6 mm
05:50 PM 58.9°F14.9°C 49.9°F9.9°C 72% 3.8 mph NW6.1 kmh NW 7.0 mph11.3 kmh 29.82 in1009.8 mb - 0.00 in0.0 mm 0.18 in4.6 mm
05:40 PM 59.1°F15.1°C 50.1°F10.1°C 72% 4.8 mph NW7.7 kmh NW 13.0 mph20.9 kmh 29.82 in1009.8 mb - 0.00 in0.0 mm 0.18 in4.6 mm
05:30 PM 59.5°F15.3°C 50.4°F10.2°C 72% 0.5 mph NW0.8 kmh NW 6.0 mph9.7 kmh 29.82 in1009.8 mb - 0.00 in0.0 mm 0.18 in4.6 mm
05:20 PM 59.9°F15.5°C 50.1°F10.1°C 70% 5.7 mph NW9.2 kmh NW 7.0 mph11.3 kmh 29.81 in1009.5 mb - 0.00 in0.0 mm 0.18 in4.6 mm
05:10 PM 60.6°F15.9°C 50.4°F10.2°C 69% 5.4 mph NW8.7 kmh NW 7.0 mph11.3 kmh 29.81 in1009.5 mb - 0.00 in0.0 mm 0.18 in4.6 mm
05:00 PM 61.4°F16.3°C 50.7°F10.4°C 68% 2.2 mph NW3.5 kmh NW 6.0 mph9.7 kmh 29.80 in1009.1 mb - 0.00 in0.0 mm 0.18 in4.6 mm
04:50 PM 62.2°F16.8°C 50.7°F10.4°C 66% 3.0 mph NW4.8 kmh NW 7.0 mph11.3 kmh 29.81 in1009.5 mb - 0.00 in0.0 mm 0.18 in4.6 mm
04:40 PM 63.1°F17.3°C 51.9°F11.1°C 67% 2.2 mph NW3.5 kmh NW 10.0 mph16.1 kmh 29.81 in1009.5 mb - 0.00 in0.0 mm 0.18 in4.6 mm
04:30 PM 64.1°F17.8°C 52.0°F11.1°C 65% 5.5 mph NW8.9 kmh NW 15.0 mph24.1 kmh 29.81 in1009.5 mb - 0.00 in0.0 mm 0.18 in4.6 mm
04:20 PM 63.4°F17.4°C 51.4°F10.8°C 65% 3.1 mph NW5.0 kmh NW 5.0 mph8.0 kmh 29.81 in1009.5 mb - 0.00 in0.0 mm 0.18 in4.6 mm
04:10 PM 62.9°F17.2°C 51.0°F10.6°C 65% 7.2 mph N11.6 kmh N 12.0 mph19.3 kmh 29.81 in1009.5 mb - 0.00 in0.0 mm 0.18 in4.6 mm
04:00 PM 63.1°F17.3°C 50.8°F10.4°C 64% 3.7 mph NW6.0 kmh NW 11.0 mph17.7 kmh 29.81 in1009.5 mb - 0.00 in0.0 mm 0.18 in4.6 mm
03:50 PM 63.1°F17.3°C 50.3°F10.2°C 63% 6.4 mph NW10.3 kmh NW 9.0 mph14.5 kmh 29.81 in1009.5 mb - 0.00 in0.0 mm 0.18 in4.6 mm
03:40 PM 64.4°F18.0°C 51.9°F11.1°C 64% 6.7 mph WNW10.8 kmh WNW 15.0 mph24.1 kmh 29.81 in1009.5 mb - 0.00 in0.0 mm 0.18 in4.6 mm
03:30 PM 64.4°F18.0°C 52.4°F11.3°C 65% 4.0 mph NNW6.4 kmh NNW 7.0 mph11.3 kmh 29.81 in1009.5 mb - 0.00 in0.0 mm 0.18 in4.6 mm
03:20 PM 65.1°F18.4°C 51.7°F10.9°C 62% 6.9 mph N11.1 kmh N 13.0 mph20.9 kmh 29.81 in1009.5 mb - 0.00 in0.0 mm 0.18 in4.6 mm
03:10 PM 65.1°F18.4°C 53.5°F11.9°C 66% 3.4 mph NNW5.5 kmh NNW 15.0 mph24.1 kmh 29.81 in1009.5 mb - 0.00 in0.0 mm 0.18 in4.6 mm
03:00 PM 64.9°F18.3°C 52.4°F11.3°C 64% 6.7 mph NW10.8 kmh NW 10.0 mph16.1 kmh 29.81 in1009.5 mb - 0.00 in0.0 mm 0.18 in4.6 mm
02:50 PM 65.1°F18.4°C 53.5°F11.9°C 66% 3.4 mph NW5.5 kmh NW 10.0 mph16.1 kmh 29.81 in1009.5 mb - 0.00 in0.0 mm 0.18 in4.6 mm
02:40 PM 65.1°F18.4°C 53.4°F11.9°C 66% 5.3 mph NW8.5 kmh NW 12.0 mph19.3 kmh 29.80 in1009.1 mb - 0.00 in0.0 mm 0.18 in4.6 mm
02:30 PM 65.0°F18.3°C 52.5°F11.4°C 64% 6.0 mph NW9.7 kmh NW 14.0 mph22.5 kmh 29.80 in1009.1 mb - 0.00 in0.0 mm 0.18 in4.6 mm
02:20 PM 65.3°F18.5°C 54.0°F12.2°C 67% 5.0 mph NW8.0 kmh NW 13.0 mph20.9 kmh 29.80 in1009.1 mb - 0.00 in0.0 mm 0.18 in4.6 mm
02:10 PM 64.6°F18.1°C 53.0°F11.7°C 66% 5.7 mph N9.2 kmh N 13.0 mph20.9 kmh 29.81 in1009.5 mb - 0.00 in0.0 mm 0.18 in4.6 mm
02:00 PM 63.6°F17.6°C 53.3°F11.8°C 69% 3.9 mph NW6.3 kmh NW 7.0 mph11.3 kmh 29.81 in1009.5 mb - 0.00 in0.0 mm 0.18 in4.6 mm
01:50 PM 64.6°F18.1°C 53.4°F11.9°C 67% 10.6 mph WNW17.1 kmh WNW 17.0 mph27.4 kmh 29.81 in1009.5 mb - 0.00 in0.0 mm 0.18 in4.6 mm
01:40 PM 64.5°F18.1°C 52.0°F11.1°C 64% 8.8 mph NW14.2 kmh NW 15.0 mph24.1 kmh 29.81 in1009.5 mb - 0.00 in0.0 mm 0.18 in4.6 mm
01:30 PM 64.0°F17.8°C 52.4°F11.3°C 66% 3.6 mph NW5.8 kmh NW 10.0 mph16.1 kmh 29.82 in1009.8 mb - 0.00 in0.0 mm 0.18 in4.6 mm
01:20 PM 64.7°F18.2°C 53.9°F12.2°C 68% 4.6 mph NW7.4 kmh NW 3.0 mph4.8 kmh 29.83 in1010.2 mb - 0.00 in0.0 mm 0.18 in4.6 mm
01:10 PM 64.8°F18.2°C 53.6°F12.0°C 67% 6.9 mph NW11.1 kmh NW 10.0 mph16.1 kmh 29.83 in1010.2 mb - 0.00 in0.0 mm 0.18 in4.6 mm
01:00 PM 64.3°F17.9°C 52.3°F11.3°C 65% 10.2 mph NW16.4 kmh NW 13.0 mph20.9 kmh 29.82 in1009.8 mb - 0.00 in0.0 mm 0.18 in4.6 mm
12:50 PM 65.4°F18.6°C 55.4°F13.0°C 70% 1.4 mph NW2.3 kmh NW 4.0 mph6.4 kmh 29.83 in1010.2 mb - 0.00 in0.0 mm 0.18 in4.6 mm
12:40 PM 64.3°F17.9°C 54.3°F12.4°C 70% 4.6 mph NW7.4 kmh NW 11.0 mph17.7 kmh 29.83 in1010.2 mb - 0.00 in0.0 mm 0.18 in4.6 mm
12:30 PM 63.7°F17.6°C 53.8°F12.1°C 70% 4.0 mph NW6.4 kmh NW 9.0 mph14.5 kmh 29.83 in1010.2 mb - 0.00 in0.0 mm 0.18 in4.6 mm
12:20 PM 63.5°F17.5°C 52.0°F11.1°C 66% 4.9 mph NW7.9 kmh NW 6.0 mph9.7 kmh 29.83 in1010.2 mb - 0.00 in0.0 mm 0.18 in4.6 mm
12:10 PM 63.8°F17.7°C 53.1°F11.7°C 68% 7.4 mph NNW11.9 kmh NNW 14.0 mph22.5 kmh 29.84 in1010.5 mb - 0.00 in0.0 mm 0.18 in4.6 mm
12:00 PM 64.5°F18.1°C 54.5°F12.5°C 70% 1.6 mph NW2.6 kmh NW 6.0 mph9.7 kmh 29.84 in1010.5 mb - 0.00 in0.0 mm 0.18 in4.6 mm
11:50 AM 64.2°F17.9°C 54.6°F12.6°C 71% 6.7 mph WNW10.8 kmh WNW 13.0 mph20.9 kmh 29.84 in1010.5 mb - 0.00 in0.0 mm 0.18 in4.6 mm
11:40 AM 63.7°F17.6°C 53.7°F12.1°C 70% 2.6 mph WNW4.2 kmh WNW 11.0 mph17.7 kmh 29.85 in1010.8 mb - 0.00 in0.0 mm 0.18 in4.6 mm
11:30 AM 63.8°F17.7°C 53.4°F11.9°C 69% 4.6 mph WNW7.4 kmh WNW 14.0 mph22.5 kmh 29.85 in1010.8 mb - 0.00 in0.0 mm 0.18 in4.6 mm
11:20 AM 64.0°F17.8°C 54.8°F12.7°C 72% 1.9 mph NW3.1 kmh NW 7.0 mph11.3 kmh 29.85 in1010.8 mb - 0.00 in0.0 mm 0.18 in4.6 mm
11:10 AM 63.7°F17.6°C 54.1°F12.3°C 71% 1.1 mph NW1.8 kmh NW 5.0 mph8.0 kmh 29.85 in1010.8 mb - 0.00 in0.0 mm 0.18 in4.6 mm
11:00 AM 63.2°F17.3°C 54.0°F12.2°C 72% 2.2 mph NW3.5 kmh NW 10.0 mph16.1 kmh 29.84 in1010.5 mb - 0.00 in0.0 mm 0.18 in4.6 mm
10:50 AM 62.6°F17.0°C 53.4°F11.9°C 72% 6.2 mph NW10.0 kmh NW 15.0 mph24.1 kmh 29.84 in1010.5 mb - 0.00 in0.0 mm 0.18 in4.6 mm
10:40 AM 62.2°F16.8°C 53.4°F11.9°C 73% 4.1 mph NW6.6 kmh NW 9.0 mph14.5 kmh 29.84 in1010.5 mb - 0.00 in0.0 mm 0.18 in4.6 mm
10:30 AM 62.2°F16.8°C 53.0°F11.7°C 72% 5.2 mph NNW8.4 kmh NNW 12.0 mph19.3 kmh 29.84 in1010.5 mb - 0.00 in0.0 mm 0.18 in4.6 mm
10:20 AM 61.6°F16.4°C 52.5°F11.4°C 72% 4.3 mph N6.9 kmh N 7.0 mph11.3 kmh 29.84 in1010.5 mb - 0.00 in0.0 mm 0.18 in4.6 mm
10:10 AM 61.6°F16.4°C 53.2°F11.8°C 74% 2.3 mph NW3.7 kmh NW 5.0 mph8.0 kmh 29.83 in1010.2 mb - 0.00 in0.0 mm 0.18 in4.6 mm
10:00 AM 60.8°F16.0°C 52.8°F11.6°C 75% 4.6 mph NNW7.4 kmh NNW 9.0 mph14.5 kmh 29.83 in1010.2 mb - 0.00 in0.0 mm 0.18 in4.6 mm
09:50 AM 60.0°F15.6°C 52.4°F11.3°C 76% 5.2 mph N8.4 kmh N 14.0 mph22.5 kmh 29.83 in1010.2 mb - 0.00 in0.0 mm 0.18 in4.6 mm
09:40 AM 59.3°F15.2°C 52.1°F11.2°C 77% 6.3 mph N10.1 kmh N 19.0 mph30.6 kmh 29.83 in1010.2 mb - 0.00 in0.0 mm 0.18 in4.6 mm
09:30 AM 58.9°F14.9°C 52.4°F11.3°C 79% 4.3 mph NNW6.9 kmh NNW 7.0 mph11.3 kmh 29.83 in1010.2 mb - 0.00 in0.0 mm 0.18 in4.6 mm
09:20 AM 57.8°F14.3°C 52.0°F11.1°C 81% 3.3 mph NW5.3 kmh NW 6.0 mph9.7 kmh 29.82 in1009.8 mb - 0.00 in0.0 mm 0.18 in4.6 mm
09:10 AM 56.2°F13.4°C 50.8°F10.4°C 82% 4.8 mph NNW7.7 kmh NNW 9.0 mph14.5 kmh 29.82 in1009.8 mb - 0.00 in0.0 mm 0.18 in4.6 mm
09:00 AM 56.6°F13.7°C 51.1°F10.6°C 82% 3.6 mph NW5.8 kmh NW 7.0 mph11.3 kmh 29.82 in1009.8 mb - 0.02 in0.5 mm 0.18 in4.6 mm
08:50 AM 56.0°F13.3°C 50.6°F10.3°C 82% 4.2 mph N6.8 kmh N 9.0 mph14.5 kmh 29.82 in1009.8 mb - 0.00 in0.0 mm 0.17 in4.3 mm
08:40 AM 56.7°F13.7°C 51.3°F10.7°C 82% 5.2 mph NNW8.4 kmh NNW 10.0 mph16.1 kmh 29.82 in1009.8 mb - 0.03 in0.8 mm 0.17 in4.3 mm
08:30 AM 57.6°F14.2°C 51.8°F11.0°C 81% 3.5 mph NW5.6 kmh NW 6.0 mph9.7 kmh 29.82 in1009.8 mb - 0.00 in0.0 mm 0.13 in3.3 mm
08:20 AM 57.3°F14.1°C 51.5°F10.8°C 81% 4.2 mph NW6.8 kmh NW 10.0 mph16.1 kmh 29.81 in1009.5 mb - 0.00 in0.0 mm 0.13 in3.3 mm
08:10 AM 56.9°F13.8°C 51.1°F10.6°C 81% 5.3 mph NW8.5 kmh NW 10.0 mph16.1 kmh 29.81 in1009.5 mb - 0.00 in0.0 mm 0.13 in3.3 mm
08:00 AM 56.7°F13.7°C 50.9°F10.5°C 81% 3.7 mph NNW6.0 kmh NNW 6.0 mph9.7 kmh 29.81 in1009.5 mb - 0.00 in0.0 mm 0.13 in3.3 mm
07:50 AM 56.6°F13.7°C 50.5°F10.3°C 80% 5.5 mph NNW8.9 kmh NNW 8.0 mph12.9 kmh 29.81 in1009.5 mb - 0.00 in0.0 mm 0.13 in3.3 mm
07:40 AM 56.5°F13.6°C 50.4°F10.2°C 80% 4.8 mph NNW7.7 kmh NNW 10.0 mph16.1 kmh 29.80 in1009.1 mb - 0.00 in0.0 mm 0.13 in3.3 mm
07:30 AM 56.3°F13.5°C 49.9°F9.9°C 79% 5.9 mph NW9.5 kmh NW 16.0 mph25.7 kmh 29.80 in1009.1 mb - 0.00 in0.0 mm 0.13 in3.3 mm
07:20 AM 56.4°F13.6°C 50.3°F10.2°C 80% 5.1 mph NW8.2 kmh NW 18.0 mph29.0 kmh 29.80 in1009.1 mb - 0.00 in0.0 mm 0.13 in3.3 mm
07:10 AM 56.6°F13.7°C 50.8°F10.4°C 81% 5.6 mph NW9.0 kmh NW 9.0 mph14.5 kmh 29.80 in1009.1 mb - 0.00 in0.0 mm 0.13 in3.3 mm
07:00 AM 56.7°F13.7°C 50.9°F10.5°C 81% 1.4 mph NW2.3 kmh NW 6.0 mph9.7 kmh 29.80 in1009.1 mb - 0.00 in0.0 mm 0.13 in3.3 mm
06:50 AM 56.6°F13.7°C 50.8°F10.4°C 81% 2.9 mph NW4.7 kmh NW 5.0 mph8.0 kmh 29.80 in1009.1 mb - 0.00 in0.0 mm 0.13 in3.3 mm
06:40 AM 56.5°F13.6°C 50.4°F10.2°C 80% 5.0 mph NNW8.0 kmh NNW 11.0 mph17.7 kmh 29.79 in1008.8 mb - 0.00 in0.0 mm 0.13 in3.3 mm
06:30 AM 56.5°F13.6°C 50.7°F10.4°C 81% 2.9 mph NNW4.7 kmh NNW 10.0 mph16.1 kmh 29.79 in1008.8 mb - 0.00 in0.0 mm 0.13 in3.3 mm
06:20 AM 56.3°F13.5°C 50.6°F10.3°C 81% 6.8 mph NNW10.9 kmh NNW 16.0 mph25.7 kmh 29.79 in1008.8 mb - 0.00 in0.0 mm 0.13 in3.3 mm
06:10 AM 56.3°F13.5°C 50.5°F10.3°C 81% 2.4 mph N3.9 kmh N 6.0 mph9.7 kmh 29.78 in1008.5 mb - 0.00 in0.0 mm 0.13 in3.3 mm
06:00 AM 56.2°F13.4°C 50.8°F10.4°C 82% 3.5 mph NNW5.6 kmh NNW 10.0 mph16.1 kmh 29.78 in1008.5 mb - 0.00 in0.0 mm 0.13 in3.3 mm
05:50 AM 56.1°F13.4°C 51.0°F10.6°C 83% 3.7 mph NW6.0 kmh NW 10.0 mph16.1 kmh 29.78 in1008.5 mb - 0.00 in0.0 mm 0.13 in3.3 mm
05:40 AM 55.8°F13.2°C 50.7°F10.4°C 83% 4.8 mph NW7.7 kmh NW 10.0 mph16.1 kmh 29.77 in1008.1 mb - 0.00 in0.0 mm 0.13 in3.3 mm
05:30 AM 55.6°F13.1°C 50.8°F10.4°C 84% 3.6 mph NW5.8 kmh NW 7.0 mph11.3 kmh 29.77 in1008.1 mb - 0.00 in0.0 mm 0.13 in3.3 mm
05:20 AM 55.5°F13.1°C 51.1°F10.6°C 85% 3.4 mph NNW5.5 kmh NNW 6.0 mph9.7 kmh 29.77 in1008.1 mb - 0.00 in0.0 mm 0.13 in3.3 mm
05:10 AM 55.5°F13.1°C 51.4°F10.8°C 86% 5.7 mph NW9.2 kmh NW 15.0 mph24.1 kmh 29.77 in1008.1 mb - 0.00 in0.0 mm 0.13 in3.3 mm
05:00 AM 55.6°F13.1°C 51.8°F11.0°C 87% 1.7 mph NNW2.7 kmh NNW 3.0 mph4.8 kmh 29.77 in1008.1 mb - 0.00 in0.0 mm 0.13 in3.3 mm
04:50 AM 55.6°F13.1°C 51.5°F10.8°C 86% 5.1 mph NNW8.2 kmh NNW 16.0 mph25.7 kmh 29.76 in1007.8 mb - 0.02 in0.5 mm 0.13 in3.3 mm
04:40 AM 56.0°F13.3°C 51.6°F10.9°C 85% 5.4 mph NNW8.7 kmh NNW 15.0 mph24.1 kmh 29.77 in1008.1 mb - 0.09 in2.3 mm 0.13 in3.3 mm
04:30 AM 56.0°F13.3°C 50.9°F10.5°C 83% 1.2 mph NW1.9 kmh NW 7.0 mph11.3 kmh 29.76 in1007.8 mb - 0.00 in0.0 mm 0.04 in1.0 mm
04:20 AM 56.0°F13.3°C 50.6°F10.3°C 82% 4.5 mph NW7.2 kmh NW 17.0 mph27.4 kmh 29.76 in1007.8 mb - 0.00 in0.0 mm 0.04 in1.0 mm
04:10 AM 56.5°F13.6°C 51.0°F10.6°C 82% 8.2 mph NW13.2 kmh NW 13.0 mph20.9 kmh 29.76 in1007.8 mb - 0.00 in0.0 mm 0.04 in1.0 mm
04:00 AM 57.3°F14.1°C 51.9°F11.1°C 82% 3.3 mph NW5.3 kmh NW 12.0 mph19.3 kmh 29.77 in1008.1 mb - 0.02 in0.5 mm 0.04 in1.0 mm
03:50 AM 57.9°F14.4°C 51.4°F10.8°C 79% 2.0 mph NW3.2 kmh NW 4.0 mph6.4 kmh 29.77 in1008.1 mb - 0.00 in0.0 mm 0.02 in0.5 mm
03:40 AM 57.9°F14.4°C 50.7°F10.4°C 77% 2.9 mph NW4.7 kmh NW 11.0 mph17.7 kmh 29.77 in1008.1 mb - 0.00 in0.0 mm 0.02 in0.5 mm
03:30 AM 58.1°F14.5°C 50.9°F10.5°C 77% 4.9 mph NW7.9 kmh NW 5.0 mph8.0 kmh 29.77 in1008.1 mb - 0.00 in0.0 mm 0.02 in0.5 mm
03:20 AM 58.2°F14.6°C 51.7°F10.9°C 79% 7.5 mph NW12.1 kmh NW 10.0 mph16.1 kmh 29.77 in1008.1 mb - 0.00 in0.0 mm 0.02 in0.5 mm
03:10 AM 58.1°F14.5°C 51.3°F10.7°C 78% 9.6 mph NW15.4 kmh NW 15.0 mph24.1 kmh 29.77 in1008.1 mb - 0.00 in0.0 mm 0.02 in0.5 mm
03:00 AM 58.0°F14.4°C 50.8°F10.4°C 77% 6.1 mph NW9.8 kmh NW 13.0 mph20.9 kmh 29.77 in1008.1 mb - 0.00 in0.0 mm 0.02 in0.5 mm
02:50 AM 58.0°F14.4°C 51.2°F10.7°C 78% 6.0 mph NW9.7 kmh NW 12.0 mph19.3 kmh 29.77 in1008.1 mb - 0.00 in0.0 mm 0.02 in0.5 mm
02:40 AM 57.8°F14.3°C 50.3°F10.2°C 76% 5.1 mph NW8.2 kmh NW 14.0 mph22.5 kmh 29.77 in1008.1 mb - 0.00 in0.0 mm 0.02 in0.5 mm
02:30 AM 58.0°F14.4°C 51.2°F10.7°C 78% 3.8 mph NW6.1 kmh NW 10.0 mph16.1 kmh 29.77 in1008.1 mb - 0.00 in0.0 mm 0.02 in0.5 mm
02:20 AM 58.3°F14.6°C 51.8°F11.0°C 79% 6.4 mph NW10.3 kmh NW 12.0 mph19.3 kmh 29.78 in1008.5 mb - 0.00 in0.0 mm 0.02 in0.5 mm
02:10 AM 58.1°F14.5°C 51.3°F10.7°C 78% 7.8 mph NW12.6 kmh NW 18.0 mph29.0 kmh 29.77 in1008.1 mb - 0.00 in0.0 mm 0.02 in0.5 mm
02:00 AM 58.0°F14.4°C 51.2°F10.7°C 78% 3.1 mph NW5.0 kmh NW 6.0 mph9.7 kmh 29.77 in1008.1 mb - 0.00 in0.0 mm 0.02 in0.5 mm
01:50 AM 57.8°F14.3°C 51.3°F10.7°C 79% 4.3 mph NW6.9 kmh NW 11.0 mph17.7 kmh 29.78 in1008.5 mb - 0.00 in0.0 mm 0.02 in0.5 mm
01:40 AM 57.3°F14.1°C 51.2°F10.7°C 80% 7.3 mph NW11.7 kmh NW 14.0 mph22.5 kmh 29.78 in1008.5 mb - 0.00 in0.0 mm 0.02 in0.5 mm
01:30 AM 56.8°F13.8°C 51.6°F10.9°C 83% 3.3 mph NW5.3 kmh NW 9.0 mph14.5 kmh 29.78 in1008.5 mb - 0.00 in0.0 mm 0.02 in0.5 mm
01:20 AM 56.5°F13.6°C 51.4°F10.8°C 83% 2.5 mph NW4.0 kmh NW 7.0 mph11.3 kmh 29.78 in1008.5 mb - 0.00 in0.0 mm 0.02 in0.5 mm
01:10 AM 56.7°F13.7°C 51.2°F10.7°C 82% 1.8 mph NW2.9 kmh NW 12.0 mph19.3 kmh 29.78 in1008.5 mb - 0.00 in0.0 mm 0.02 in0.5 mm
01:00 AM 57.2°F14.0°C 51.4°F10.8°C 81% 3.3 mph NNW5.3 kmh NNW 8.0 mph12.9 kmh 29.78 in1008.5 mb - 0.01 in0.3 mm 0.02 in0.5 mm
12:50 AM 58.4°F14.7°C 51.9°F11.1°C 79% 3.4 mph NW5.5 kmh NW 14.0 mph22.5 kmh 29.79 in1008.8 mb - 0.02 in0.5 mm 0.02 in0.5 mm
12:40 AM 58.6°F14.8°C 50.7°F10.4°C 75% 1.8 mph NW2.9 kmh NW 4.0 mph6.4 kmh 29.78 in1008.5 mb - 0.00 in0.0 mm 0.00 in0.0 mm
12:30 AM 58.3°F14.6°C 50.4°F10.2°C 75% 3.8 mph NW6.1 kmh NW 7.0 mph11.3 kmh 29.79 in1008.8 mb - 0.00 in0.0 mm 0.00 in0.0 mm
12:20 AM 57.9°F14.4°C 50.4°F10.2°C 76% 4.7 mph NW7.6 kmh NW 15.0 mph24.1 kmh 29.79 in1008.8 mb - 0.00 in0.0 mm 0.00 in0.0 mm
12:10 AM 57.6°F14.2°C 50.1°F10.1°C 76% 2.6 mph NW4.2 kmh NW 7.0 mph11.3 kmh 29.78 in1008.5 mb - 0.00 in0.0 mm 0.00 in0.0 mm
12:00 AM 57.6°F14.2°C 50.1°F10.1°C 76% 0.3 mph NW0.5 kmh NW 1.0 mph1.6 kmh 29.78 in1008.5 mb - 0.00 in0.0 mm 0.00 in0.0 mm